sensor_id;sensor_type;location;lat;lon;timestamp;P1;durP1;ratioP1;P2;durP2;ratioP2
30605;SDS011;17371;51.328;3.860;2023-04-24T00:00:38;41.60;;;15.47;;
30605;SDS011;17371;51.328;3.860;2023-04-24T00:03:05;36.73;;;15.13;;
30605;SDS011;17371;51.328;3.860;2023-04-24T00:05:30;37.25;;;14.52;;
30605;SDS011;17371;51.328;3.860;2023-04-24T00:07:56;29.87;;;13.13;;
30605;SDS011;17371;51.328;3.860;2023-04-24T00:10:21;25.45;;;11.55;;
30605;SDS011;17371;51.328;3.860;2023-04-24T00:12:46;35.17;;;12.80;;
30605;SDS011;17371;51.328;3.860;2023-04-24T00:15:12;24.50;;;10.60;;
30605;SDS011;17371;51.328;3.860;2023-04-24T00:17:38;22.65;;;9.55;;
30605;SDS011;17371;51.328;3.860;2023-04-24T00:20:05;21.60;;;8.23;;
30605;SDS011;17371;51.328;3.860;2023-04-24T00:22:31;22.40;;;8.68;;
30605;SDS011;17371;51.328;3.860;2023-04-24T00:24:57;20.37;;;8.03;;
30605;SDS011;17371;51.328;3.860;2023-04-24T00:27:22;20.53;;;7.90;;
30605;SDS011;17371;51.328;3.860;2023-04-24T00:29:48;16.37;;;8.03;;
30605;SDS011;17371;51.328;3.860;2023-04-24T00:32:13;16.98;;;7.40;;
30605;SDS011;17371;51.328;3.860;2023-04-24T00:34:39;18.13;;;7.47;;
30605;SDS011;17371;51.328;3.860;2023-04-24T00:37:06;17.88;;;6.93;;
30605;SDS011;17371;51.328;3.860;2023-04-24T00:39:31;15.97;;;6.80;;
30605;SDS011;17371;51.328;3.860;2023-04-24T00:41:57;15.35;;;6.43;;
30605;SDS011;17371;51.328;3.860;2023-04-24T00:44:22;16.07;;;6.70;;
30605;SDS011;17371;51.328;3.860;2023-04-24T00:46:48;17.17;;;7.03;;
30605;SDS011;17371;51.328;3.860;2023-04-24T00:49:13;17.90;;;6.50;;
30605;SDS011;17371;51.328;3.860;2023-04-24T00:51:39;13.60;;;6.40;;
30605;SDS011;17371;51.328;3.860;2023-04-24T00:54:05;15.63;;;6.37;;
30605;SDS011;17371;51.328;3.860;2023-04-24T00:56:31;15.98;;;6.57;;
30605;SDS011;17371;51.328;3.860;2023-04-24T00:58:56;16.23;;;6.17;;
30605;SDS011;17371;51.328;3.860;2023-04-24T01:01:22;19.60;;;6.38;;
30605;SDS011;17371;51.328;3.860;2023-04-24T01:03:48;16.03;;;6.63;;
30605;SDS011;17371;51.328;3.860;2023-04-24T01:06:14;15.02;;;6.30;;
30605;SDS011;17371;51.328;3.860;2023-04-24T01:08:40;16.40;;;6.80;;
30605;SDS011;17371;51.328;3.860;2023-04-24T01:11:07;12.60;;;6.82;;
30605;SDS011;17371;51.328;3.860;2023-04-24T01:13:33;15.15;;;6.90;;
30605;SDS011;17371;51.328;3.860;2023-04-24T01:15:59;20.02;;;6.68;;
30605;SDS011;17371;51.328;3.860;2023-04-24T01:18:24;15.00;;;6.40;;
30605;SDS011;17371;51.328;3.860;2023-04-24T01:20:50;12.85;;;6.28;;
30605;SDS011;17371;51.328;3.860;2023-04-24T01:23:17;11.85;;;6.05;;
30605;SDS011;17371;51.328;3.860;2023-04-24T01:25:42;9.02;;;4.85;;
30605;SDS011;17371;51.328;3.860;2023-04-24T01:28:08;7.87;;;4.50;;
30605;SDS011;17371;51.328;3.860;2023-04-24T01:30:34;9.95;;;5.03;;
30605;SDS011;17371;51.328;3.860;2023-04-24T01:32:59;9.07;;;4.87;;
30605;SDS011;17371;51.328;3.860;2023-04-24T01:35:25;8.27;;;4.90;;
30605;SDS011;17371;51.328;3.860;2023-04-24T01:37:50;9.07;;;4.68;;
30605;SDS011;17371;51.328;3.860;2023-04-24T01:40:17;8.40;;;5.47;;
30605;SDS011;17371;51.328;3.860;2023-04-24T01:42:43;9.15;;;5.78;;
30605;SDS011;17371;51.328;3.860;2023-04-24T01:45:10;10.70;;;5.63;;
30605;SDS011;17371;51.328;3.860;2023-04-24T01:47:36;10.10;;;5.93;;
30605;SDS011;17371;51.328;3.860;2023-04-24T01:50:01;9.10;;;5.97;;
30605;SDS011;17371;51.328;3.860;2023-04-24T01:52:27;10.03;;;5.83;;
30605;SDS011;17371;51.328;3.860;2023-04-24T01:54:52;10.83;;;6.10;;
30605;SDS011;17371;51.328;3.860;2023-04-24T01:57:19;12.70;;;5.77;;
30605;SDS011;17371;51.328;3.860;2023-04-24T01:59:45;12.45;;;6.15;;
30605;SDS011;17371;51.328;3.860;2023-04-24T02:02:10;12.43;;;5.93;;
30605;SDS011;17371;51.328;3.860;2023-04-24T02:04:35;15.67;;;6.30;;
30605;SDS011;17371;51.328;3.860;2023-04-24T02:07:01;14.05;;;6.05;;
30605;SDS011;17371;51.328;3.860;2023-04-24T02:09:26;12.47;;;6.00;;
30605;SDS011;17371;51.328;3.860;2023-04-24T02:11:52;15.43;;;6.70;;
30605;SDS011;17371;51.328;3.860;2023-04-24T02:14:18;14.83;;;7.17;;
30605;SDS011;17371;51.328;3.860;2023-04-24T02:16:44;13.95;;;6.03;;
30605;SDS011;17371;51.328;3.860;2023-04-24T02:19:09;12.43;;;5.30;;
30605;SDS011;17371;51.328;3.860;2023-04-24T02:21:35;15.07;;;6.33;;
30605;SDS011;17371;51.328;3.860;2023-04-24T02:24:00;13.40;;;5.35;;
30605;SDS011;17371;51.328;3.860;2023-04-24T02:26:26;11.17;;;5.67;;
30605;SDS011;17371;51.328;3.860;2023-04-24T02:28:51;8.70;;;3.30;;
30605;SDS011;17371;51.328;3.860;2023-04-24T02:31:18;12.20;;;3.77;;
30605;SDS011;17371;51.328;3.860;2023-04-24T02:33:43;9.85;;;3.83;;
30605;SDS011;17371;51.328;3.860;2023-04-24T02:36:08;18.80;;;5.57;;
30605;SDS011;17371;51.328;3.860;2023-04-24T02:38:34;13.63;;;4.83;;
30605;SDS011;17371;51.328;3.860;2023-04-24T02:40:59;8.88;;;3.50;;
30605;SDS011;17371;51.328;3.860;2023-04-24T02:43:25;12.18;;;4.20;;
30605;SDS011;17371;51.328;3.860;2023-04-24T02:45:50;9.93;;;3.20;;
30605;SDS011;17371;51.328;3.860;2023-04-24T02:48:17;19.30;;;5.73;;
30605;SDS011;17371;51.328;3.860;2023-04-24T02:50:42;9.15;;;4.20;;
30605;SDS011;17371;51.328;3.860;2023-04-24T02:53:07;11.93;;;4.20;;
30605;SDS011;17371;51.328;3.860;2023-04-24T02:55:33;14.80;;;4.10;;
30605;SDS011;17371;51.328;3.860;2023-04-24T02:57:58;13.07;;;5.37;;
30605;SDS011;17371;51.328;3.860;2023-04-24T03:00:24;9.97;;;5.10;;
30605;SDS011;17371;51.328;3.860;2023-04-24T03:02:49;16.13;;;6.03;;
30605;SDS011;17371;51.328;3.860;2023-04-24T03:05:16;11.60;;;4.00;;
30605;SDS011;17371;51.328;3.860;2023-04-24T03:07:41;15.40;;;5.87;;
30605;SDS011;17371;51.328;3.860;2023-04-24T03:10:07;13.77;;;5.20;;
30605;SDS011;17371;51.328;3.860;2023-04-24T03:12:33;18.03;;;5.50;;
30605;SDS011;17371;51.328;3.860;2023-04-24T03:14:58;9.15;;;4.68;;
30605;SDS011;17371;51.328;3.860;2023-04-24T03:17:24;11.50;;;4.07;;
30605;SDS011;17371;51.328;3.860;2023-04-24T03:19:50;15.68;;;5.55;;
30605;SDS011;17371;51.328;3.860;2023-04-24T03:22:17;14.10;;;5.63;;
30605;SDS011;17371;51.328;3.860;2023-04-24T03:24:43;17.33;;;4.85;;
30605;SDS011;17371;51.328;3.860;2023-04-24T03:27:08;10.67;;;5.17;;
30605;SDS011;17371;51.328;3.860;2023-04-24T03:29:33;9.80;;;4.43;;
30605;SDS011;17371;51.328;3.860;2023-04-24T03:31:59;12.30;;;4.50;;
30605;SDS011;17371;51.328;3.860;2023-04-24T03:34:24;18.77;;;6.67;;
30605;SDS011;17371;51.328;3.860;2023-04-24T03:36:49;20.52;;;6.00;;
30605;SDS011;17371;51.328;3.860;2023-04-24T03:39:16;20.17;;;5.93;;
30605;SDS011;17371;51.328;3.860;2023-04-24T03:41:42;10.00;;;4.38;;
30605;SDS011;17371;51.328;3.860;2023-04-24T03:44:07;24.70;;;6.90;;
30605;SDS011;17371;51.328;3.860;2023-04-24T03:46:33;21.53;;;6.50;;
30605;SDS011;17371;51.328;3.860;2023-04-24T03:48:58;14.17;;;5.50;;
30605;SDS011;17371;51.328;3.860;2023-04-24T03:51:23;26.35;;;8.00;;
30605;SDS011;17371;51.328;3.860;2023-04-24T03:53:49;19.97;;;6.40;;
30605;SDS011;17371;51.328;3.860;2023-04-24T03:56:15;24.37;;;7.57;;
30605;SDS011;17371;51.328;3.860;2023-04-24T03:58:41;17.67;;;6.15;;
30605;SDS011;17371;51.328;3.860;2023-04-24T04:01:07;14.05;;;6.72;;
30605;SDS011;17371;51.328;3.860;2023-04-24T04:03:32;30.92;;;9.25;;
30605;SDS011;17371;51.328;3.860;2023-04-24T04:05:58;23.20;;;8.63;;
30605;SDS011;17371;51.328;3.860;2023-04-24T04:08:23;26.60;;;10.63;;
30605;SDS011;17371;51.328;3.860;2023-04-24T04:10:48;26.77;;;9.90;;
30605;SDS011;17371;51.328;3.860;2023-04-24T04:13:15;28.40;;;10.70;;
30605;SDS011;17371;51.328;3.860;2023-04-24T04:15:41;15.90;;;8.20;;
30605;SDS011;17371;51.328;3.860;2023-04-24T04:18:06;25.07;;;8.30;;
30605;SDS011;17371;51.328;3.860;2023-04-24T04:20:31;17.07;;;6.97;;
30605;SDS011;17371;51.328;3.860;2023-04-24T04:22:57;28.23;;;8.30;;
30605;SDS011;17371;51.328;3.860;2023-04-24T04:25:22;22.03;;;8.10;;
30605;SDS011;17371;51.328;3.860;2023-04-24T04:27:47;21.03;;;8.87;;
30605;SDS011;17371;51.328;3.860;2023-04-24T04:30:14;31.53;;;9.90;;
30605;SDS011;17371;51.328;3.860;2023-04-24T04:32:40;26.83;;;9.00;;
30605;SDS011;17371;51.328;3.860;2023-04-24T04:35:05;29.70;;;7.97;;
30605;SDS011;17371;51.328;3.860;2023-04-24T04:37:31;19.60;;;7.82;;
30605;SDS011;17371;51.328;3.860;2023-04-24T04:39:57;14.67;;;6.37;;
30605;SDS011;17371;51.328;3.860;2023-04-24T04:42:22;19.70;;;7.57;;
30605;SDS011;17371;51.328;3.860;2023-04-24T04:44:47;19.07;;;8.90;;
30605;SDS011;17371;51.328;3.860;2023-04-24T04:47:14;21.07;;;8.53;;
30605;SDS011;17371;51.328;3.860;2023-04-24T04:49:39;21.10;;;7.93;;
30605;SDS011;17371;51.328;3.860;2023-04-24T04:52:05;14.60;;;6.03;;
30605;SDS011;17371;51.328;3.860;2023-04-24T04:54:30;20.30;;;7.70;;
30605;SDS011;17371;51.328;3.860;2023-04-24T04:56:56;28.80;;;8.73;;
30605;SDS011;17371;51.328;3.860;2023-04-24T04:59:21;22.42;;;10.73;;
30605;SDS011;17371;51.328;3.860;2023-04-24T05:01:46;34.20;;;10.17;;
30605;SDS011;17371;51.328;3.860;2023-04-24T05:04:13;27.20;;;10.00;;
30605;SDS011;17371;51.328;3.860;2023-04-24T05:06:38;32.38;;;10.27;;
30605;SDS011;17371;51.328;3.860;2023-04-24T05:09:04;23.77;;;10.40;;
30605;SDS011;17371;51.328;3.860;2023-04-24T05:11:29;29.43;;;10.80;;
30605;SDS011;17371;51.328;3.860;2023-04-24T05:13:54;39.53;;;12.07;;
30605;SDS011;17371;51.328;3.860;2023-04-24T05:16:20;24.10;;;10.00;;
30605;SDS011;17371;51.328;3.860;2023-04-24T05:18:45;39.80;;;11.87;;
30605;SDS011;17371;51.328;3.860;2023-04-24T05:21:12;18.08;;;8.15;;
30605;SDS011;17371;51.328;3.860;2023-04-24T05:23:37;24.50;;;8.53;;
30605;SDS011;17371;51.328;3.860;2023-04-24T05:26:03;17.13;;;8.02;;
30605;SDS011;17371;51.328;3.860;2023-04-24T05:28:28;23.40;;;8.95;;
30605;SDS011;17371;51.328;3.860;2023-04-24T05:30:54;31.00;;;9.67;;
30605;SDS011;17371;51.328;3.860;2023-04-24T05:33:19;20.37;;;6.67;;
30605;SDS011;17371;51.328;3.860;2023-04-24T05:35:44;23.83;;;8.80;;
30605;SDS011;17371;51.328;3.860;2023-04-24T05:38:11;32.43;;;9.10;;
30605;SDS011;17371;51.328;3.860;2023-04-24T05:40:37;21.05;;;7.38;;
30605;SDS011;17371;51.328;3.860;2023-04-24T05:43:02;18.80;;;6.40;;
30605;SDS011;17371;51.328;3.860;2023-04-24T05:45:27;17.90;;;5.95;;
30605;SDS011;17371;51.328;3.860;2023-04-24T05:47:53;31.70;;;9.27;;
30605;SDS011;17371;51.328;3.860;2023-04-24T05:50:18;10.77;;;4.93;;
30605;SDS011;17371;51.328;3.860;2023-04-24T05:52:43;14.27;;;5.07;;
30605;SDS011;17371;51.328;3.860;2023-04-24T05:55:10;23.33;;;7.63;;
30605;SDS011;17371;51.328;3.860;2023-04-24T05:57:36;12.18;;;5.10;;
30605;SDS011;17371;51.328;3.860;2023-04-24T06:00:01;16.30;;;5.83;;
30605;SDS011;17371;51.328;3.860;2023-04-24T06:02:26;17.63;;;5.82;;
30605;SDS011;17371;51.328;3.860;2023-04-24T06:04:52;25.65;;;6.68;;
30605;SDS011;17371;51.328;3.860;2023-04-24T06:07:17;19.13;;;5.50;;
30605;SDS011;17371;51.328;3.860;2023-04-24T06:09:43;16.77;;;5.43;;
30605;SDS011;17371;51.328;3.860;2023-04-24T06:12:09;22.20;;;5.37;;
30605;SDS011;17371;51.328;3.860;2023-04-24T06:14:35;23.35;;;6.10;;
30605;SDS011;17371;51.328;3.860;2023-04-24T06:17:00;20.67;;;6.20;;
30605;SDS011;17371;51.328;3.860;2023-04-24T06:19:25;21.70;;;6.10;;
30605;SDS011;17371;51.328;3.860;2023-04-24T06:21:51;16.13;;;6.20;;
30605;SDS011;17371;51.328;3.860;2023-04-24T06:24:16;22.50;;;4.80;;
30605;SDS011;17371;51.328;3.860;2023-04-24T06:26:42;17.67;;;5.53;;
30605;SDS011;17371;51.328;3.860;2023-04-24T06:29:08;12.73;;;4.10;;
30605;SDS011;17371;51.328;3.860;2023-04-24T06:31:34;10.90;;;3.78;;
30605;SDS011;17371;51.328;3.860;2023-04-24T06:33:59;12.83;;;3.30;;
30605;SDS011;17371;51.328;3.860;2023-04-24T06:36:24;9.53;;;3.80;;
30605;SDS011;17371;51.328;3.860;2023-04-24T06:38:50;12.47;;;3.60;;
30605;SDS011;17371;51.328;3.860;2023-04-24T06:41:15;12.20;;;3.53;;
30605;SDS011;17371;51.328;3.860;2023-04-24T06:43:41;15.33;;;4.10;;
30605;SDS011;17371;51.328;3.860;2023-04-24T06:46:07;14.13;;;3.87;;
30605;SDS011;17371;51.328;3.860;2023-04-24T06:48:33;12.88;;;3.17;;
30605;SDS011;17371;51.328;3.860;2023-04-24T06:50:58;13.93;;;3.97;;
30605;SDS011;17371;51.328;3.860;2023-04-24T06:53:23;11.55;;;3.92;;
30605;SDS011;17371;51.328;3.860;2023-04-24T06:55:49;11.87;;;3.37;;
30605;SDS011;17371;51.328;3.860;2023-04-24T06:58:14;20.93;;;4.53;;
30605;SDS011;17371;51.328;3.860;2023-04-24T07:00:40;22.63;;;4.80;;
30605;SDS011;17371;51.328;3.860;2023-04-24T07:03:06;15.50;;;4.50;;
30605;SDS011;17371;51.328;3.860;2023-04-24T07:05:32;25.73;;;5.13;;
30605;SDS011;17371;51.328;3.860;2023-04-24T07:07:57;25.23;;;5.53;;
30605;SDS011;17371;51.328;3.860;2023-04-24T07:10:23;15.20;;;3.20;;
30605;SDS011;17371;51.328;3.860;2023-04-24T07:12:48;19.75;;;4.30;;
30605;SDS011;17371;51.328;3.860;2023-04-24T07:15:13;18.10;;;4.57;;
30605;SDS011;17371;51.328;3.860;2023-04-24T07:17:39;19.30;;;4.60;;
30605;SDS011;17371;51.328;3.860;2023-04-24T07:20:06;23.57;;;5.60;;
30605;SDS011;17371;51.328;3.860;2023-04-24T07:22:32;12.93;;;3.92;;
30605;SDS011;17371;51.328;3.860;2023-04-24T07:24:57;20.10;;;4.60;;
30605;SDS011;17371;51.328;3.860;2023-04-24T07:27:23;11.83;;;3.73;;
30605;SDS011;17371;51.328;3.860;2023-04-24T07:29:48;12.10;;;3.30;;
30605;SDS011;17371;51.328;3.860;2023-04-24T07:32:13;13.17;;;3.60;;
30605;SDS011;17371;51.328;3.860;2023-04-24T07:34:39;14.40;;;3.60;;
30605;SDS011;17371;51.328;3.860;2023-04-24T07:37:05;16.00;;;4.07;;
30605;SDS011;17371;51.328;3.860;2023-04-24T07:39:31;17.20;;;3.97;;
30605;SDS011;17371;51.328;3.860;2023-04-24T07:41:56;11.10;;;3.57;;
30605;SDS011;17371;51.328;3.860;2023-04-24T07:44:22;13.25;;;4.10;;
30605;SDS011;17371;51.328;3.860;2023-04-24T07:46:48;17.80;;;4.53;;
30605;SDS011;17371;51.328;3.860;2023-04-24T07:49:13;14.33;;;4.80;;
30605;SDS011;17371;51.328;3.860;2023-04-24T07:51:39;16.13;;;4.23;;
30605;SDS011;17371;51.328;3.860;2023-04-24T07:54:05;10.68;;;3.65;;
30605;SDS011;17371;51.328;3.860;2023-04-24T07:56:31;14.87;;;4.13;;
30605;SDS011;17371;51.328;3.860;2023-04-24T07:58:56;14.35;;;3.55;;
30605;SDS011;17371;51.328;3.860;2023-04-24T08:01:22;12.20;;;3.77;;
30605;SDS011;17371;51.328;3.860;2023-04-24T08:03:47;14.60;;;3.53;;
30605;SDS011;17371;51.328;3.860;2023-04-24T08:06:12;11.90;;;3.33;;
30605;SDS011;17371;51.328;3.860;2023-04-24T08:08:38;7.87;;;2.30;;
30605;SDS011;17371;51.328;3.860;2023-04-24T08:11:04;10.60;;;2.70;;
30605;SDS011;17371;51.328;3.860;2023-04-24T08:13:30;17.40;;;3.25;;
30605;SDS011;17371;51.328;3.860;2023-04-24T08:15:56;14.02;;;3.03;;
30605;SDS011;17371;51.328;3.860;2023-04-24T08:18:21;11.20;;;2.63;;
30605;SDS011;17371;51.328;3.860;2023-04-24T08:20:47;11.55;;;3.00;;
30605;SDS011;17371;51.328;3.860;2023-04-24T08:23:12;12.77;;;3.10;;
30605;SDS011;17371;51.328;3.860;2023-04-24T08:25:38;12.60;;;3.77;;
30605;SDS011;17371;51.328;3.860;2023-04-24T08:28:05;13.47;;;2.80;;
30605;SDS011;17371;51.328;3.860;2023-04-24T08:30:31;15.10;;;3.35;;
30605;SDS011;17371;51.328;3.860;2023-04-24T08:32:56;22.47;;;2.63;;
30605;SDS011;17371;51.328;3.860;2023-04-24T08:35:21;14.57;;;4.10;;
30605;SDS011;17371;51.328;3.860;2023-04-24T08:37:47;14.77;;;3.03;;
30605;SDS011;17371;51.328;3.860;2023-04-24T08:40:13;11.67;;;2.83;;
30605;SDS011;17371;51.328;3.860;2023-04-24T08:42:40;9.63;;;2.50;;
30605;SDS011;17371;51.328;3.860;2023-04-24T08:45:08;15.20;;;3.13;;
30605;SDS011;17371;51.328;3.860;2023-04-24T08:47:35;13.05;;;3.20;;
30605;SDS011;17371;51.328;3.860;2023-04-24T08:50:00;13.27;;;3.10;;
30605;SDS011;17371;51.328;3.860;2023-04-24T08:52:27;16.08;;;4.32;;
30605;SDS011;17371;51.328;3.860;2023-04-24T08:54:52;10.23;;;3.17;;
30605;SDS011;17371;51.328;3.860;2023-04-24T08:57:18;14.95;;;3.55;;
30605;SDS011;17371;51.328;3.860;2023-04-24T08:59:44;11.90;;;3.13;;
30605;SDS011;17371;51.328;3.860;2023-04-24T09:02:11;16.13;;;3.10;;
30605;SDS011;17371;51.328;3.860;2023-04-24T09:04:37;12.60;;;3.28;;
30605;SDS011;17371;51.328;3.860;2023-04-24T09:07:02;9.27;;;3.37;;
30605;SDS011;17371;51.328;3.860;2023-04-24T09:09:28;10.10;;;2.83;;
30605;SDS011;17371;51.328;3.860;2023-04-24T09:11:55;10.17;;;2.80;;
30605;SDS011;17371;51.328;3.860;2023-04-24T09:14:20;6.47;;;2.47;;
30605;SDS011;17371;51.328;3.860;2023-04-24T09:16:46;7.80;;;2.93;;
30605;SDS011;17371;51.328;3.860;2023-04-24T09:19:13;13.57;;;2.22;;
30605;SDS011;17371;51.328;3.860;2023-04-24T09:21:38;9.07;;;2.70;;
30605;SDS011;17371;51.328;3.860;2023-04-24T09:24:05;5.75;;;2.55;;
30605;SDS011;17371;51.328;3.860;2023-04-24T09:26:31;8.32;;;2.63;;
30605;SDS011;17371;51.328;3.860;2023-04-24T09:28:57;6.57;;;2.22;;
30605;SDS011;17371;51.328;3.860;2023-04-24T09:31:22;5.75;;;2.63;;
30605;SDS011;17371;51.328;3.860;2023-04-24T09:33:53;8.75;;;2.53;;
30605;SDS011;17371;51.328;3.860;2023-04-24T09:36:20;8.47;;;2.33;;
30605;SDS011;17371;51.328;3.860;2023-04-24T09:38:53;3.67;;;2.13;;
30605;SDS011;17371;51.328;3.860;2023-04-24T09:41:20;6.38;;;2.50;;
30605;SDS011;17371;51.328;3.860;2023-04-24T09:43:46;6.93;;;2.10;;
30605;SDS011;17371;51.328;3.860;2023-04-24T09:46:11;8.13;;;2.80;;
30605;SDS011;17371;51.328;3.860;2023-04-24T09:48:37;6.93;;;2.42;;
30605;SDS011;17371;51.328;3.860;2023-04-24T09:51:03;4.97;;;2.17;;
30605;SDS011;17371;51.328;3.860;2023-04-24T09:53:31;8.40;;;2.33;;
30605;SDS011;17371;51.328;3.860;2023-04-24T09:55:56;11.27;;;2.90;;
30605;SDS011;17371;51.328;3.860;2023-04-24T09:58:28;6.20;;;2.03;;
30605;SDS011;17371;51.328;3.860;2023-04-24T10:00:53;6.67;;;2.20;;
30605;SDS011;17371;51.328;3.860;2023-04-24T10:03:19;7.47;;;1.90;;
30605;SDS011;17371;51.328;3.860;2023-04-24T10:05:45;6.73;;;1.90;;
30605;SDS011;17371;51.328;3.860;2023-04-24T10:08:11;5.03;;;1.70;;
30605;SDS011;17371;51.328;3.860;2023-04-24T10:10:57;5.93;;;1.98;;
30605;SDS011;17371;51.328;3.860;2023-04-24T10:13:41;3.35;;;1.60;;
30605;SDS011;17371;51.328;3.860;2023-04-24T10:16:25;4.93;;;1.60;;
30605;SDS011;17371;51.328;3.860;2023-04-24T10:19:09;6.23;;;1.30;;
30605;SDS011;17371;51.328;3.860;2023-04-24T10:21:54;4.45;;;1.83;;
30605;SDS011;17371;51.328;3.860;2023-04-24T10:24:38;3.38;;;1.40;;
30605;SDS011;17371;51.328;3.860;2023-04-24T10:27:24;3.83;;;1.80;;
30605;SDS011;17371;51.328;3.860;2023-04-24T10:30:09;3.72;;;1.63;;
30605;SDS011;17371;51.328;3.860;2023-04-24T10:32:55;5.73;;;1.50;;
30605;SDS011;17371;51.328;3.860;2023-04-24T10:35:40;8.23;;;2.50;;
30605;SDS011;17371;51.328;3.860;2023-04-24T10:38:25;2.65;;;1.60;;
30605;SDS011;17371;51.328;3.860;2023-04-24T10:40:57;7.75;;;1.85;;
30605;SDS011;17371;51.328;3.860;2023-04-24T10:43:24;4.53;;;1.58;;
30605;SDS011;17371;51.328;3.860;2023-04-24T10:46:01;4.40;;;1.80;;
30605;SDS011;17371;51.328;3.860;2023-04-24T10:48:27;6.30;;;2.08;;
30605;SDS011;17371;51.328;3.860;2023-04-24T10:50:53;4.93;;;1.80;;
30605;SDS011;17371;51.328;3.860;2023-04-24T10:53:19;3.97;;;1.70;;
30605;SDS011;17371;51.328;3.860;2023-04-24T10:55:46;5.35;;;1.70;;
30605;SDS011;17371;51.328;3.860;2023-04-24T10:58:13;3.97;;;2.13;;
30605;SDS011;17371;51.328;3.860;2023-04-24T11:00:40;7.82;;;1.63;;
30605;SDS011;17371;51.328;3.860;2023-04-24T11:03:06;5.80;;;2.20;;
30605;SDS011;17371;51.328;3.860;2023-04-24T11:05:52;5.30;;;1.70;;
30605;SDS011;17371;51.328;3.860;2023-04-24T11:08:25;7.63;;;1.70;;
30605;SDS011;17371;51.328;3.860;2023-04-24T11:10:55;6.68;;;1.77;;
30605;SDS011;17371;51.328;3.860;2023-04-24T11:13:23;6.95;;;1.92;;
30605;SDS011;17371;51.328;3.860;2023-04-24T11:18:40;4.40;;;1.80;;
30605;SDS011;17371;51.328;3.860;2023-04-24T11:21:10;7.75;;;2.40;;
30605;SDS011;17371;51.328;3.860;2023-04-24T11:23:36;6.47;;;2.25;;
30605;SDS011;17371;51.328;3.860;2023-04-24T11:26:10;2.63;;;1.60;;
30605;SDS011;17371;51.328;3.860;2023-04-24T11:28:36;4.05;;;1.95;;
30605;SDS011;17371;51.328;3.860;2023-04-24T11:34:06;6.65;;;2.20;;
30605;SDS011;17371;51.328;3.860;2023-04-24T11:36:32;7.03;;;2.50;;
30605;SDS011;17371;51.328;3.860;2023-04-24T11:38:58;8.70;;;2.58;;
30605;SDS011;17371;51.328;3.860;2023-04-24T11:41:24;6.13;;;2.23;;
30605;SDS011;17371;51.328;3.860;2023-04-24T11:43:49;7.13;;;1.80;;
30605;SDS011;17371;51.328;3.860;2023-04-24T11:46:16;5.78;;;2.17;;
30605;SDS011;17371;51.328;3.860;2023-04-24T11:48:45;5.55;;;2.15;;
30605;SDS011;17371;51.328;3.860;2023-04-24T11:51:11;5.63;;;2.30;;
30605;SDS011;17371;51.328;3.860;2023-04-24T11:53:37;7.72;;;2.20;;
30605;SDS011;17371;51.328;3.860;2023-04-24T11:56:02;8.93;;;2.00;;
30605;SDS011;17371;51.328;3.860;2023-04-24T11:58:28;5.40;;;1.70;;
30605;SDS011;17371;51.328;3.860;2023-04-24T12:00:55;4.67;;;1.90;;
30605;SDS011;17371;51.328;3.860;2023-04-24T12:03:21;5.43;;;1.42;;
30605;SDS011;17371;51.328;3.860;2023-04-24T12:05:48;5.73;;;1.80;;
30605;SDS011;17371;51.328;3.860;2023-04-24T12:08:15;2.80;;;1.60;;
30605;SDS011;17371;51.328;3.860;2023-04-24T12:10:52;2.90;;;1.50;;
30605;SDS011;17371;51.328;3.860;2023-04-24T12:13:17;2.60;;;1.20;;
30605;SDS011;17371;51.328;3.860;2023-04-24T12:15:43;2.33;;;1.47;;
30605;SDS011;17371;51.328;3.860;2023-04-24T12:18:11;2.47;;;1.30;;
30605;SDS011;17371;51.328;3.860;2023-04-24T12:20:36;4.32;;;1.67;;
30605;SDS011;17371;51.328;3.860;2023-04-24T12:23:03;3.57;;;1.37;;
30605;SDS011;17371;51.328;3.860;2023-04-24T12:25:29;4.00;;;1.58;;
30605;SDS011;17371;51.328;3.860;2023-04-24T12:27:55;4.30;;;1.50;;
30605;SDS011;17371;51.328;3.860;2023-04-24T12:30:34;3.13;;;1.45;;
30605;SDS011;17371;51.328;3.860;2023-04-24T12:33:03;3.93;;;1.30;;
30605;SDS011;17371;51.328;3.860;2023-04-24T12:35:29;4.00;;;1.48;;
30605;SDS011;17371;51.328;3.860;2023-04-24T12:37:56;4.27;;;1.27;;
30605;SDS011;17371;51.328;3.860;2023-04-24T12:40:31;3.92;;;1.25;;
30605;SDS011;17371;51.328;3.860;2023-04-24T12:42:57;2.17;;;1.50;;
30605;SDS011;17371;51.328;3.860;2023-04-24T12:45:22;5.25;;;1.88;;
30605;SDS011;17371;51.328;3.860;2023-04-24T12:47:48;2.33;;;1.27;;
30605;SDS011;17371;51.328;3.860;2023-04-24T12:50:14;4.30;;;1.87;;
30605;SDS011;17371;51.328;3.860;2023-04-24T12:52:40;6.82;;;1.65;;
30605;SDS011;17371;51.328;3.860;2023-04-24T12:55:07;8.10;;;1.65;;
30605;SDS011;17371;51.328;3.860;2023-04-24T12:57:33;3.67;;;1.50;;
30605;SDS011;17371;51.328;3.860;2023-04-24T12:59:59;4.53;;;1.58;;
30605;SDS011;17371;51.328;3.860;2023-04-24T13:02:26;4.93;;;2.05;;
30605;SDS011;17371;51.328;3.860;2023-04-24T13:04:53;3.90;;;1.83;;
30605;SDS011;17371;51.328;3.860;2023-04-24T13:07:18;3.60;;;1.48;;
30605;SDS011;17371;51.328;3.860;2023-04-24T13:09:44;4.53;;;1.80;;
30605;SDS011;17371;51.328;3.860;2023-04-24T13:12:11;4.00;;;1.58;;
30605;SDS011;17371;51.328;3.860;2023-04-24T13:14:37;4.10;;;1.70;;
30605;SDS011;17371;51.328;3.860;2023-04-24T13:17:03;4.17;;;1.77;;
30605;SDS011;17371;51.328;3.860;2023-04-24T13:19:28;3.72;;;1.70;;
30605;SDS011;17371;51.328;3.860;2023-04-24T13:21:54;3.23;;;1.87;;
30605;SDS011;17371;51.328;3.860;2023-04-24T13:24:20;6.32;;;1.58;;
30605;SDS011;17371;51.328;3.860;2023-04-24T13:26:46;7.80;;;2.13;;
30605;SDS011;17371;51.328;3.860;2023-04-24T13:29:12;5.23;;;1.60;;
30605;SDS011;17371;51.328;3.860;2023-04-24T13:31:38;4.00;;;1.92;;
30605;SDS011;17371;51.328;3.860;2023-04-24T13:34:03;6.60;;;2.30;;
30605;SDS011;17371;51.328;3.860;2023-04-24T13:36:29;4.67;;;1.90;;
30605;SDS011;17371;51.328;3.860;2023-04-24T13:38:54;10.13;;;2.42;;
30605;SDS011;17371;51.328;3.860;2023-04-24T13:41:20;5.33;;;2.30;;
30605;SDS011;17371;51.328;3.860;2023-04-24T13:43:45;8.80;;;2.20;;
30605;SDS011;17371;51.328;3.860;2023-04-24T13:46:12;5.47;;;2.20;;
30605;SDS011;17371;51.328;3.860;2023-04-24T13:48:37;5.72;;;2.05;;
30605;SDS011;17371;51.328;3.860;2023-04-24T13:51:02;5.30;;;2.10;;
30605;SDS011;17371;51.328;3.860;2023-04-24T13:53:28;8.88;;;2.08;;
30605;SDS011;17371;51.328;3.860;2023-04-24T13:55:53;3.70;;;1.90;;
30605;SDS011;17371;51.328;3.860;2023-04-24T13:58:19;4.97;;;1.80;;
30605;SDS011;17371;51.328;3.860;2023-04-24T14:00:44;7.50;;;2.00;;
30605;SDS011;17371;51.328;3.860;2023-04-24T14:03:11;4.80;;;2.07;;
30605;SDS011;17371;51.328;3.860;2023-04-24T14:05:36;7.32;;;2.70;;
30605;SDS011;17371;51.328;3.860;2023-04-24T14:08:02;4.87;;;1.93;;
30605;SDS011;17371;51.328;3.860;2023-04-24T14:10:27;4.77;;;2.20;;
30605;SDS011;17371;51.328;3.860;2023-04-24T14:12:53;8.00;;;2.50;;
30605;SDS011;17371;51.328;3.860;2023-04-24T14:15:18;5.70;;;2.07;;
30605;SDS011;17371;51.328;3.860;2023-04-24T14:17:44;6.27;;;2.40;;
30605;SDS011;17371;51.328;3.860;2023-04-24T14:20:11;10.18;;;2.17;;
30605;SDS011;17371;51.328;3.860;2023-04-24T14:22:37;7.33;;;2.20;;
30605;SDS011;17371;51.328;3.860;2023-04-24T14:25:02;6.97;;;2.45;;
30605;SDS011;17371;51.328;3.860;2023-04-24T14:27:29;10.90;;;2.20;;
30605;SDS011;17371;51.328;3.860;2023-04-24T14:29:54;6.60;;;2.53;;
30605;SDS011;17371;51.328;3.860;2023-04-24T14:32:19;7.22;;;2.45;;
30605;SDS011;17371;51.328;3.860;2023-04-24T14:34:45;6.37;;;2.33;;
30605;SDS011;17371;51.328;3.860;2023-04-24T14:37:11;7.27;;;2.50;;
30605;SDS011;17371;51.328;3.860;2023-04-24T14:39:37;3.35;;;2.15;;